Time;durP1;ratioP1;P1;durP2;ratioP2;P2;SDS_P1;SDS_P2;PMS_P1;PMS_P2;Temp;Humidity;BMP_temperature;BMP_pressure;BME280_temperature;BME280_humidity;BME280_pressure;Samples;Min_cycle;Max_cycle;Signal;HPM_P1;HPM_P2
2022/09/27 00:01:08;;;;;;;21.02;9.53;;;;;;;8.15;80.50;96005.08;1747877;82;27529;-78
2022/09/27 00:03:37;;;;;;;16.40;9.63;;;;;;;8.12;80.42;95999.34;1748087;82;25483;-76
2022/09/27 00:06:16;;;;;;;15.75;9.83;;;;;;;8.03;80.22;95998.04;1747829;82;26586;-77
2022/09/27 00:08:43;;;;;;;13.80;9.05;;;;;;;7.97;80.28;95994.39;1744210;82;26526;-77
2022/09/27 00:11:34;;;;;;;12.95;9.05;;;;;;;7.93;80.27;95987.85;1748177;82;26784;-77
2022/09/27 00:14:02;;;;;;;16.17;9.40;;;;;;;7.89;80.17;95985.31;1748119;82;27397;-77
2022/09/27 00:16:33;;;;;;;16.97;9.33;;;;;;;7.86;80.17;95981.73;1747752;82;26514;-77
2022/09/27 00:19:04;;;;;;;17.17;9.28;;;;;;;7.86;80.17;95995.17;1748200;82;25836;-77
2022/09/27 00:21:31;;;;;;;13.35;9.10;;;;;;;7.82;80.04;95987.29;1748134;82;25826;-78
2022/09/27 00:23:58;;;;;;;13.30;7.37;;;;;;;7.77;79.96;95999.23;1748070;82;25813;-78
2022/09/27 00:26:26;;;;;;;15.72;8.03;;;;;;;7.72;79.91;96004.48;1783119;80;28214;-77
2022/09/27 00:28:53;;;;;;;14.40;7.55;;;;;;;7.64;79.71;96005.59;1789370;80;25327;-77
2022/09/27 00:31:28;;;;;;;10.98;7.90;;;;;;;7.52;79.57;96002.86;1789446;80;25735;-77
2022/09/27 00:33:58;;;;;;;11.90;7.65;;;;;;;7.41;79.72;95992.06;1788975;80;25777;-78
2022/09/27 00:36:27;;;;;;;15.58;7.72;;;;;;;7.38;79.89;95993.84;1734060;82;25338;-78
2022/09/27 00:38:54;;;;;;;12.58;8.05;;;;;;;7.35;79.93;95981.72;1734055;82;28285;-78
2022/09/27 00:41:32;;;;;;;10.85;7.42;;;;;;;7.34;79.87;95983.28;1733931;82;25708;-77
2022/09/27 00:44:32;;;;;;;14.55;8.08;;;;;;;7.32;80.00;95986.19;1663586;86;25854;-78
2022/09/27 00:47:20;;;;;;;12.90;8.73;;;;;;;7.31;79.93;95982.38;1652520;85;25818;-78
2022/09/27 00:50:01;;;;;;;12.23;8.20;;;;;;;7.22;79.80;95973.83;1649434;86;25934;-77
2022/09/27 00:52:45;;;;;;;13.85;7.85;;;;;;;7.19;79.98;95964.88;1649055;86;27458;-78
2022/09/27 00:55:19;;;;;;;16.93;8.30;;;;;;;7.17;79.90;95965.09;1596846;88;25882;-77
2022/09/27 00:57:48;;;;;;;14.35;8.15;;;;;;;7.14;79.86;95964.20;1597017;89;25904;-77
2022/09/27 01:00:15;;;;;;;16.80;9.70;;;;;;;7.06;79.69;95966.38;1596165;89;25757;-78
2022/09/27 01:02:49;;;;;;;17.15;9.45;;;;;;;7.04;80.00;95968.45;1589983;90;25847;-77
2022/09/27 01:05:19;;;;;;;15.35;8.80;;;;;;;7.06;80.18;95958.33;1590184;89;27416;-77
2022/09/27 01:07:46;;;;;;;13.45;8.48;;;;;;;7.09;80.21;95953.86;1589937;90;25859;-78
2022/09/27 01:10:15;;;;;;;12.68;8.88;;;;;;;7.06;80.13;95949.75;1590115;90;25323;-78
2022/09/27 01:12:56;;;;;;;25.57;11.63;;;;;;;7.05;80.21;95941.92;1590125;90;25818;-78
2022/09/27 01:15:34;;;;;;;22.27;12.88;;;;;;;7.04;80.23;95937.60;1588999;88;26183;-77
2022/09/27 01:18:18;;;;;;;20.50;13.05;;;;;;;6.97;80.44;95929.64;1587791;90;27409;-77
2022/09/27 01:21:22;;;;;;;16.23;11.97;;;;;;;6.95;80.68;95930.91;1590093;88;26097;-77
2022/09/27 01:24:16;;;;;;;14.73;10.13;;;;;;;6.97;80.87;95926.14;1590374;90;25822;-78
2022/09/27 01:26:59;;;;;;;14.45;9.53;;;;;;;6.98;80.91;95927.78;1590168;90;25854;-78
2022/09/27 01:29:48;;;;;;;16.75;12.47;;;;;;;6.94;81.05;95925.23;1589779;88;25386;-78
2022/09/27 01:32:28;;;;;;;19.62;10.18;;;;;;;6.96;81.21;95919.13;1601764;87;28706;-79
2022/09/27 01:35:06;;;;;;;16.30;8.23;;;;;;;7.00;81.26;95921.67;1573947;91;25606;-78
2022/09/27 01:37:46;;;;;;;14.40;10.40;;;;;;;7.02;81.27;95928.43;1571516;91;25803;-78
2022/09/27 01:40:41;;;;;;;12.58;9.00;;;;;;;7.02;81.26;95922.24;1578423;85;26521;-79
2022/09/27 01:43:17;;;;;;;14.28;8.20;;;;;;;7.01;81.25;95916.06;1611265;89;25898;-77
2022/09/27 01:46:01;;;;;;;14.43;7.45;;;;;;;7.00;81.12;95911.77;1636754;87;28166;-78
2022/09/27 01:48:44;;;;;;;14.10;7.85;;;;;;;6.99;81.01;95927.56;1549807;92;25926;-78
2022/09/27 01:51:25;;;;;;;10.50;7.58;;;;;;;6.97;80.89;95926.14;1541567;93;25932;-77
2022/09/27 01:53:55;;;;;;;8.95;7.28;;;;;;;6.91;80.81;95923.82;1517384;94;25888;-77
2022/09/27 01:56:33;;;;;;;12.10;7.58;;;;;;;6.88;80.75;95923.47;1541696;93;25938;-77
2022/09/27 01:59:20;;;;;;;10.32;7.42;;;;;;;6.86;80.68;95920.48;1517457;93;27691;-78
2022/09/27 02:01:49;;;;;;;11.50;7.37;;;;;;;6.83;80.53;95921.45;1493061;96;25830;-77
2022/09/27 02:04:24;;;;;;;11.25;7.42;;;;;;;6.80;80.63;95913.32;1516360;94;25642;-77
2022/09/27 02:06:58;;;;;;;11.25;7.70;;;;;;;6.82;80.64;95912.58;1516518;94;25830;-77
2022/09/27 02:09:38;;;;;;;12.37;8.23;;;;;;;6.79;80.59;95910.34;1516286;94;25996;-77
2022/09/27 02:12:09;;;;;;;12.43;8.55;;;;;;;6.74;80.53;95906.19;1525579;93;28052;-78
2022/09/27 02:14:59;;;;;;;13.78;8.53;;;;;;;6.69;80.62;95907.88;1533443;93;25822;-77
2022/09/27 02:17:39;;;;;;;13.15;8.73;;;;;;;6.67;80.71;95905.94;1536203;93;25894;-79
2022/09/27 02:20:14;;;;;;;17.40;9.08;;;;;;;6.64;80.74;95909.88;1455745;98;25969;-78
2022/09/27 02:22:58;;;;;;;13.05;8.98;;;;;;;6.55;80.79;95904.52;1492231;94;25897;-79
2022/09/27 02:25:45;;;;;;;15.08;9.90;;;;;;;6.56;81.02;95902.66;1481373;94;28241;-79
2022/09/27 02:28:20;;;;;;;16.37;9.45;;;;;;;6.58;81.15;95897.91;1458224;97;25912;-78
2022/09/27 02:30:46;;;;;;;17.55;8.78;;;;;;;6.60;81.16;95890.46;1445009;99;25851;-78
2022/09/27 02:33:13;;;;;;;25.50;8.35;;;;;;;6.61;81.21;95884.06;1453927;97;25867;-78
2022/09/27 02:35:40;;;;;;;29.92;7.45;;;;;;;6.61;81.21;95879.52;1468522;97;25878;-78
2022/09/27 02:38:07;;;;;;;18.85;7.45;;;;;;;6.55;81.16;95872.88;1468390;97;28472;-78
2022/09/27 02:40:39;;;;;;;31.87;6.95;;;;;;;6.49;81.30;95867.38;1468026;97;26650;-78
2022/09/27 02:43:06;;;;;;;12.13;7.75;;;;;;;6.51;81.42;95867.16;1468266;97;25960;-78
2022/09/27 02:45:54;;;;;;;11.63;8.03;;;;;;;6.53;81.56;95865.57;1468383;97;25909;-78
2022/09/27 02:48:47;;;;;;;14.73;7.17;;;;;;;6.55;81.57;95871.53;1475685;96;25935;-78
2022/09/27 02:51:22;;;;;;;15.28;7.17;;;;;;;6.52;81.49;95866.09;1451573;98;32749;-79
2022/09/27 02:54:00;;;;;;;20.17;7.50;;;;;;;6.50;81.64;95866.34;1451598;98;25905;-78
2022/09/27 02:56:46;;;;;;;15.80;8.30;;;;;;;6.47;81.69;95874.00;1474135;94;25825;-77
2022/09/27 02:59:35;;;;;;;16.60;8.05;;;;;;;6.39;81.75;95872.44;1517687;93;25783;-78
2022/09/27 03:02:30;;;;;;;11.20;7.12;;;;;;;6.37;81.93;95868.34;1469479;96;25799;-78
2022/09/27 03:05:07;;;;;;;11.35;7.90;;;;;;;6.34;81.97;95878.16;1513446;94;27479;-78
2022/09/27 03:07:37;;;;;;;11.75;7.67;;;;;;;6.30;81.98;95865.71;1520708;93;25973;-78
2022/09/27 03:10:04;;;;;;;10.25;7.17;;;;;;;6.30;82.02;95868.91;1541033;93;25833;-78
2022/09/27 03:12:32;;;;;;;10.45;7.25;;;;;;;6.32;82.10;95878.37;1541091;93;25984;-78
2022/09/27 03:15:00;;;;;;;11.08;7.90;;;;;;;6.34;82.09;95873.61;1541045;93;25794;-78
2022/09/27 03:17:26;;;;;;;11.20;8.75;;;;;;;6.36;82.05;95868.04;1603634;88;27427;-78
2022/09/27 03:19:53;;;;;;;9.60;7.62;;;;;;;6.38;82.01;95869.46;1615085;88;25919;-78
2022/09/27 03:22:20;;;;;;;10.72;7.85;;;;;;;6.40;81.93;95872.71;1614796;88;27002;-78
2022/09/27 03:24:48;;;;;;;10.40;7.53;;;;;;;6.40;81.83;95872.71;1615174;88;26784;-78
2022/09/27 03:27:14;;;;;;;10.32;8.05;;;;;;;6.42;81.81;95877.85;1634794;84;26000;-78
2022/09/27 03:29:41;;;;;;;10.35;8.20;;;;;;;6.41;81.70;95878.37;1689832;84;28457;-78
2022/09/27 03:32:08;;;;;;;9.45;7.40;;;;;;;6.40;81.71;95871.92;1689561;84;25731;-78
2022/09/27 03:34:34;;;;;;;10.35;7.85;;;;;;;6.36;81.64;95863.50;1690130;84;25751;-78
2022/09/27 03:37:01;;;;;;;11.65;8.38;;;;;;;6.34;81.72;95854.03;1690203;84;25891;-78
2022/09/27 03:39:28;;;;;;;12.37;7.70;;;;;;;6.36;81.73;95855.98;1690119;84;25820;-79
2022/09/27 03:41:55;;;;;;;17.02;8.95;;;;;;;6.36;81.74;95855.98;1689917;84;27610;-79
2022/09/27 03:44:22;;;;;;;13.93;9.73;;;;;;;6.33;81.73;95857.75;1690205;84;25893;-78
2022/09/27 03:46:49;;;;;;;11.80;8.60;;;;;;;6.31;81.81;95866.53;1689822;84;25945;-79
2022/09/27 03:49:16;;;;;;;15.13;8.55;;;;;;;6.32;81.90;95870.85;1690218;84;26676;-77
2022/09/27 03:51:43;;;;;;;15.20;7.90;;;;;;;6.33;81.98;95865.27;1741987;80;25757;-77
2022/09/27 03:54:09;;;;;;;15.28;8.18;;;;;;;6.36;82.11;95860.81;1772148;80;27644;-79
2022/09/27 03:56:36;;;;;;;15.20;8.65;;;;;;;6.38;82.07;95864.62;1772418;80;25737;-79
2022/09/27 03:59:03;;;;;;;13.70;8.83;;;;;;;6.36;82.02;95858.14;1772684;79;25744;-78
2022/09/27 04:01:30;;;;;;;9.95;7.90;;;;;;;6.35;82.02;95863.20;1777753;80;25695;-77
2022/09/27 04:03:56;;;;;;;12.15;8.83;;;;;;;6.37;82.11;95863.80;1789101;80;25705;-78
2022/09/27 04:06:24;;;;;;;14.98;10.03;;;;;;;6.41;82.13;95863.63;1789260;80;27489;-79
2022/09/27 04:08:51;;;;;;;14.50;10.20;;;;;;;6.42;82.09;95859.91;1789427;80;26434;-77
2022/09/27 04:11:17;;;;;;;14.83;9.63;;;;;;;6.43;82.11;95856.71;1789350;80;25780;-79
2022/09/27 04:13:44;;;;;;;15.50;10.05;;;;;;;6.44;82.20;95846.29;1789489;80;25800;-78
2022/09/27 04:16:10;;;;;;;15.58;8.45;;;;;;;6.43;82.34;95831.25;1789170;80;25931;-78
2022/09/27 04:18:37;;;;;;;13.40;9.38;;;;;;;6.42;82.42;95825.59;1789322;80;27589;-77
2022/09/27 04:21:04;;;;;;;13.80;9.08;;;;;;;6.43;82.47;95827.23;1789638;80;25783;-77
2022/09/27 04:23:30;;;;;;;15.32;9.13;;;;;;;6.44;82.53;95832.89;1789601;80;25752;-78
2022/09/27 04:25:57;;;;;;;10.93;8.65;;;;;;;6.47;82.56;95831.11;1789235;80;26530;-77
2022/09/27 04:28:24;;;;;;;14.50;8.95;;;;;;;6.50;82.69;95833.35;1789137;80;26163;-78
2022/09/27 04:30:50;;;;;;;15.13;10.80;;;;;;;6.52;82.78;95825.88;1789335;80;27360;-77
2022/09/27 04:33:17;;;;;;;15.50;9.23;;;;;;;6.54;82.76;95826.48;1789042;80;26483;-78
2022/09/27 04:38:30;;;;;;;18.05;11.63;;;;;;;6.57;82.59;95819.34;1789466;80;26594;-78
2022/09/27 04:40:57;;;;;;;14.53;11.03;;;;;;;6.57;82.53;95823.87;1789554;80;25694;-78
2022/09/27 04:43:24;;;;;;;14.87;10.43;;;;;;;6.58;82.52;95823.66;1789395;80;27412;-78
2022/09/27 04:45:50;;;;;;;16.45;10.50;;;;;;;6.60;82.52;95821.58;1789585;80;25638;-77
2022/09/27 04:48:17;;;;;;;15.15;11.38;;;;;;;6.64;82.54;95824.08;1789576;80;25724;-78
2022/09/27 04:50:43;;;;;;;15.18;10.38;;;;;;;6.66;82.63;95831.39;1789534;80;26297;-78
2022/09/27 04:53:14;;;;;;;13.55;9.80;;;;;;;6.65;82.75;95829.75;1789527;80;25399;-79
2022/09/27 04:55:48;;;;;;;12.90;9.48;;;;;;;6.65;82.82;95831.61;1732123;82;27395;-77
2022/09/27 04:58:16;;;;;;;17.55;9.45;;;;;;;6.66;82.84;95834.06;1732094;82;25934;-79
2022/09/27 05:00:42;;;;;;;19.95;11.90;;;;;;;6.67;82.87;95818.28;1732285;82;25738;-79
2022/09/27 05:03:09;;;;;;;18.30;11.45;;;;;;;6.69;82.95;95809.48;1711527;82;26547;-78
2022/09/27 05:05:36;;;;;;;17.85;11.83;;;;;;;6.72;82.99;95811.73;1708146;82;25802;-78
2022/09/27 05:08:02;;;;;;;15.45;11.38;;;;;;;6.76;83.00;95806.19;1708118;82;28682;-78
2022/09/27 05:10:29;;;;;;;21.95;11.30;;;;;;;6.80;83.01;95795.31;1708118;83;25366;-78
2022/09/27 05:12:55;;;;;;;16.05;9.90;;;;;;;6.84;83.09;95796.52;1708354;83;25748;-79
2022/09/27 05:15:22;;;;;;;14.53;10.60;;;;;;;6.88;83.15;95795.55;1708262;83;26650;-78
2022/09/27 05:17:51;;;;;;;17.17;9.95;;;;;;;6.90;83.20;95796.11;1703611;83;25849;-78
2022/09/27 05:20:18;;;;;;;18.25;11.35;;;;;;;6.91;83.20;95792.91;1703990;83;28138;-78
2022/09/27 05:22:45;;;;;;;19.40;12.47;;;;;;;6.96;83.27;95789.03;1707691;83;25763;-78
2022/09/27 05:25:12;;;;;;;21.23;12.45;;;;;;;7.00;83.28;95784.86;1707816;84;25748;-78
2022/09/27 05:27:39;;;;;;;16.62;10.15;;;;;;;7.02;83.35;95782.22;1708135;83;25876;-78
2022/09/27 05:30:07;;;;;;;20.43;11.80;;;;;;;7.04;83.49;95780.65;1708175;83;25739;-77
2022/09/27 05:32:34;;;;;;;22.77;13.50;;;;;;;7.08;83.54;95778.63;1707993;83;28189;-77
2022/09/27 05:35:01;;;;;;;27.60;13.75;;;;;;;7.13;83.61;95777.92;1708083;83;25755;-78
2022/09/27 05:37:31;;;;;;;24.85;13.55;;;;;;;7.16;83.69;95772.11;1707725;83;25881;-78
2022/09/27 05:39:57;;;;;;;22.40;13.95;;;;;;;7.21;83.74;95777.62;1708338;83;25727;-78
2022/09/27 05:42:24;;;;;;;25.35;14.20;;;;;;;7.26;83.81;95773.70;1708454;83;26870;-78
2022/09/27 05:44:51;;;;;;;28.02;14.38;;;;;;;7.32;83.92;95778.17;1708299;83;27403;-77
2022/09/27 05:47:17;;;;;;;26.35;14.63;;;;;;;7.35;84.05;95770.19;1708132;83;25856;-79
2022/09/27 05:49:44;;;;;;;23.20;15.48;;;;;;;7.40;84.20;95769.77;1708090;83;25308;-78
2022/09/27 05:52:10;;;;;;;26.77;15.70;;;;;;;7.44;84.35;95776.33;1729939;80;25745;-78
2022/09/27 05:54:38;;;;;;;23.98;15.65;;;;;;;7.50;84.37;95765.98;1772087;80;25665;-78
2022/09/27 05:57:05;;;;;;;23.85;15.65;;;;;;;7.58;84.40;95762.98;1771926;80;27386;-77
2022/09/27 05:59:32;;;;;;;22.95;15.85;;;;;;;7.65;84.47;95756.14;1771837;80;25359;-78
2022/09/27 06:01:59;;;;;;;20.77;13.58;;;;;;;7.72;84.48;95760.89;1768875;80;25817;-77
2022/09/27 06:04:25;;;;;;;19.90;14.25;;;;;;;7.81;84.53;95764.03;1768674;80;25835;-78
2022/09/27 06:06:52;;;;;;;19.52;12.98;;;;;;;7.89;84.62;95756.95;1769198;81;25861;-77
2022/09/27 06:09:18;;;;;;;16.10;12.37;;;;;;;7.96;84.59;95759.02;1769101;80;28103;-77
2022/09/27 06:11:45;;;;;;;20.10;12.78;;;;;;;8.03;84.55;95760.22;1768503;80;25783;-77
2022/09/27 06:14:13;;;;;;;17.70;12.15;;;;;;;8.09;84.50;95757.95;1768708;80;26683;-77
2022/09/27 06:16:40;;;;;;;18.48;11.97;;;;;;;8.16;84.52;95759.98;1768723;80;26569;-78
2022/09/27 06:19:06;;;;;;;16.20;12.33;;;;;;;8.22;84.55;95759.84;1769067;81;25688;-77
2022/09/27 06:21:33;;;;;;;14.85;11.55;;;;;;;8.29;84.58;95747.09;1769148;80;27352;-77
2022/09/27 06:24:00;;;;;;;16.60;10.95;;;;;;;8.37;84.54;95752.66;1768634;81;25724;-79
2022/09/27 06:26:27;;;;;;;16.48;13.05;;;;;;;8.46;84.52;95750.41;1769334;80;25223;-78
2022/09/27 06:28:54;;;;;;;16.65;12.37;;;;;;;8.52;84.50;95752.16;1769191;80;25720;-78
2022/09/27 06:31:21;;;;;;;18.73;11.97;;;;;;;8.58;84.43;95754.70;1768881;80;25736;-77
2022/09/27 06:33:49;;;;;;;17.35;12.73;;;;;;;8.62;84.31;95760.42;1768981;80;27443;-77
2022/09/27 06:36:16;;;;;;;17.48;12.65;;;;;;;8.65;84.31;95755.91;1769032;80;25785;-77
2022/09/27 06:38:44;;;;;;;19.48;12.50;;;;;;;8.70;84.33;95764.06;1769089;80;25753;-77
2022/09/27 06:41:12;;;;;;;16.55;12.13;;;;;;;8.73;84.16;95764.94;1768953;80;26718;-79
2022/09/27 06:43:38;;;;;;;18.48;12.47;;;;;;;8.77;84.17;95760.73;1769043;80;25780;-76
2022/09/27 06:46:05;;;;;;;17.77;12.45;;;;;;;8.81;84.13;95759.20;1769000;81;27418;-77
2022/09/27 06:48:33;;;;;;;16.52;12.63;;;;;;;8.87;84.09;95758.23;1755613;81;25977;-77
2022/09/27 06:51:00;;;;;;;15.10;12.53;;;;;;;8.91;84.07;95748.63;1753335;80;25685;-77
2022/09/27 06:53:28;;;;;;;15.65;12.20;;;;;;;8.96;84.17;95748.70;1742664;81;25523;-77
2022/09/27 06:56:00;;;;;;;14.35;11.53;;;;;;;9.08;84.22;95751.86;1738536;82;25662;-77
2022/09/27 07:01:16;;;;;;;14.53;9.93;;;;;;;9.33;84.29;95752.31;1732373;82;26351;-77
2022/09/27 07:03:43;;;;;;;11.75;8.75;;;;;;;9.44;84.23;95752.77;1761604;80;25722;-77
2022/09/27 07:06:21;;;;;;;13.25;9.25;;;;;;;9.47;83.83;95740.16;1762562;81;25712;-77
2022/09/27 07:08:52;;;;;;;14.68;9.80;;;;;;;9.49;83.58;95744.78;1729335;82;25792;-78
2022/09/27 07:11:22;;;;;;;12.07;9.78;;;;;;;9.48;83.54;95745.84;1731014;81;28530;-77
2022/09/27 07:13:49;;;;;;;12.07;9.13;;;;;;;9.51;83.41;95749.92;1730909;82;25720;-79
2022/09/27 07:16:16;;;;;;;11.08;9.18;;;;;;;9.54;83.46;95748.88;1731089;81;25765;-78
2022/09/27 07:18:43;;;;;;;15.53;10.00;;;;;;;9.68;83.52;95746.16;1730928;81;26701;-77
2022/09/27 07:21:11;;;;;;;11.57;9.45;;;;;;;9.78;83.50;95748.74;1731035;82;25693;-77
2022/09/27 07:23:38;;;;;;;16.02;11.28;;;;;;;9.89;83.52;95754.56;1731195;81;27372;-76
2022/09/27 07:26:07;;;;;;;23.50;17.45;;;;;;;9.99;83.40;95752.83;1730874;81;25784;-77
2022/09/27 07:28:35;;;;;;;14.43;10.70;;;;;;;10.12;83.40;95750.32;1731314;82;25271;-77
2022/09/27 07:31:02;;;;;;;11.70;9.23;;;;;;;10.31;83.40;95744.94;1731338;82;25684;-78
2022/09/27 07:33:30;;;;;;;11.85;9.90;;;;;;;10.51;83.39;95738.16;1731217;82;25782;-77
2022/09/27 07:35:57;;;;;;;9.65;8.60;;;;;;;10.72;83.32;95737.36;1731290;82;27996;-77
2022/09/27 07:38:24;;;;;;;10.85;7.78;;;;;;;10.93;83.02;95732.98;1730744;82;26145;-78
2022/09/27 07:40:51;;;;;;;9.80;7.92;;;;;;;11.11;82.90;95738.02;1731308;81;25447;-78
2022/09/27 07:43:18;;;;;;;9.98;8.18;;;;;;;11.33;82.76;95736.10;1731095;81;25825;-78
2022/09/27 07:45:45;;;;;;;10.65;7.75;;;;;;;11.52;82.65;95723.83;1731223;81;26071;-78
2022/09/27 07:48:15;;;;;;;10.48;8.03;;;;;;;11.72;82.17;95720.45;1731367;82;27604;-78
2022/09/27 07:50:42;;;;;;;12.45;7.60;;;;;;;11.81;81.61;95722.19;1731225;81;25774;-79
2022/09/27 07:53:11;;;;;;;9.98;7.72;;;;;;;11.93;81.36;95717.95;1730890;82;25774;-77
2022/09/27 07:55:37;;;;;;;11.85;6.90;;;;;;;12.02;81.30;95717.72;1712628;82;26497;-78
2022/09/27 07:58:09;;;;;;;10.00;6.78;;;;;;;12.16;81.00;95712.14;1731503;82;25784;-78
2022/09/27 08:00:38;;;;;;;10.98;5.53;;;;;;;12.43;80.78;95710.12;1719022;83;27382;-77
2022/09/27 08:03:15;;;;;;;5.78;4.65;;;;;;;12.65;80.31;95706.41;1731036;80;25886;-78
2022/09/27 08:05:44;;;;;;;8.55;6.65;;;;;;;12.79;79.31;95710.25;1664651;85;25837;-77
2022/09/27 08:08:11;;;;;;;8.55;6.92;;;;;;;12.80;79.25;95704.54;1668773;85;25819;-77
2022/09/27 08:10:43;;;;;;;11.28;6.70;;;;;;;12.82;79.20;95705.62;1668070;85;25910;-77
2022/09/27 08:13:06;;;;;;;11.20;6.80;;;;;;;12.81;79.21;95708.06;1681806;85;27587;-77
2022/09/27 08:18:08;;;;;;;8.65;7.20;;;;;;;12.95;79.32;95695.65;1668369;85;25819;-77
2022/09/27 08:20:35;;;;;;;9.65;7.25;;;;;;;13.22;79.18;95697.63;1668556;84;25975;-76
2022/09/27 08:23:03;;;;;;;10.23;7.10;;;;;;;13.46;78.87;95695.75;1668254;84;25835;-78
2022/09/27 08:25:30;;;;;;;8.48;7.08;;;;;;;13.68;78.56;95699.00;1668668;84;28153;-77
2022/09/27 08:28:01;;;;;;;8.03;6.58;;;;;;;13.82;77.84;95692.48;1668496;84;25760;-76
2022/09/27 08:30:31;;;;;;;9.03;7.15;;;;;;;13.95;77.16;95694.63;1614981;87;25987;-77
2022/09/27 08:32:59;;;;;;;11.65;7.90;;;;;;;13.99;76.84;95688.94;1611703;88;25686;-76
2022/09/27 08:35:28;;;;;;;9.35;8.18;;;;;;;14.18;77.13;95684.55;1611801;88;25900;-76
2022/09/27 08:38:00;;;;;;;9.13;7.83;;;;;;;14.44;76.85;95688.02;1611707;88;27414;-76
2022/09/27 08:40:35;;;;;;;8.58;7.62;;;;;;;14.65;76.74;95682.77;1611527;89;25781;-77
2022/09/27 08:43:09;;;;;;;9.63;7.08;;;;;;;14.89;76.54;95679.39;1588552;90;25950;-76
2022/09/27 08:46:00;;;;;;;8.90;6.72;;;;;;;15.03;75.78;95676.33;1588897;90;26480;-76
2022/09/27 08:48:28;;;;;;;7.72;6.87;;;;;;;15.19;75.45;95671.07;1517840;93;25536;-76
2022/09/27 08:50:56;;;;;;;9.18;6.45;;;;;;;15.33;74.30;95681.58;1517865;94;27599;-77
2022/09/27 08:53:28;;;;;;;11.50;7.45;;;;;;;15.39;74.17;95679.61;1517748;94;25910;-77
2022/09/27 08:55:58;;;;;;;10.93;7.37;;;;;;;15.52;74.15;95687.67;1518023;94;35425;-76
2022/09/27 08:58:33;;;;;;;7.50;6.12;;;;;;;15.59;73.23;95675.39;1517898;94;25695;-76
2022/09/27 09:01:05;;;;;;;8.78;7.33;;;;;;;15.70;73.19;95672.03;1517595;94;26170;-76
2022/09/27 09:03:41;;;;;;;8.03;6.55;;;;;;;15.88;73.57;95667.81;1483686;95;27420;-75
2022/09/27 09:06:33;;;;;;;8.85;6.72;;;;;;;16.13;73.61;95667.01;1470129;97;25804;-76
2022/09/27 09:09:29;;;;;;;10.00;7.20;;;;;;;16.35;72.79;95661.05;1470724;97;26639;-76
2022/09/27 09:15:21;;;;;;;11.55;7.33;;;;;;;16.89;72.20;95658.51;1481911;96;25873;-78
2022/09/27 09:18:31;;;;;;;7.70;6.00;;;;;;;17.21;71.71;95655.04;1491285;96;27443;-77
2022/09/27 09:21:39;;;;;;;11.25;7.40;;;;;;;17.35;71.04;95640.11;1491073;96;26287;-78
2022/09/27 09:24:33;;;;;;;9.35;7.03;;;;;;;17.55;70.44;95632.95;1568175;90;25901;-77
2022/09/27 09:27:37;;;;;;;7.78;6.70;;;;;;;17.76;70.56;95629.34;1602872;86;25849;-80
2022/09/27 09:30:24;;;;;;;7.28;6.35;;;;;;;17.89;69.51;95627.20;1627436;88;25445;-78
2022/09/27 09:33:04;;;;;;;8.70;6.35;;;;;;;18.07;69.29;95618.14;1627656;88;27443;-78
2022/09/27 09:35:41;;;;;;;6.58;5.58;;;;;;;18.19;68.84;95613.00;1627346;88;25807;-77
2022/09/27 09:38:16;;;;;;;10.28;6.17;;;;;;;18.36;68.67;95604.98;1625834;88;25955;-79
2022/09/27 09:40:57;;;;;;;6.15;5.55;;;;;;;18.58;68.35;95599.41;1620864;88;25738;-80
2022/09/27 09:43:35;;;;;;;8.78;5.70;;;;;;;18.67;66.87;95589.38;1626558;88;25554;-78
2022/09/27 09:46:12;;;;;;;6.65;5.10;;;;;;;18.64;67.21;95581.78;1575541;90;27626;-78
2022/09/27 09:48:57;;;;;;;9.25;5.65;;;;;;;18.72;66.72;95571.48;1526569;93;26087;-78
2022/09/27 09:51:35;;;;;;;5.25;4.75;;;;;;;18.79;66.70;95571.89;1502866;95;25390;-78
2022/09/27 09:54:28;;;;;;;8.28;5.10;;;;;;;18.99;66.73;95574.14;1539209;91;25868;-77
2022/09/27 09:57:20;;;;;;;5.90;4.65;;;;;;;19.24;66.46;95572.73;1503006;95;25906;-79
2022/09/27 09:59:53;;;;;;;5.92;4.90;;;;;;;19.23;64.57;95566.20;1523102;92;28271;-79
2022/09/27 10:02:38;;;;;;;8.00;5.00;;;;;;;19.29;65.33;95566.34;1550796;92;25836;-77
2022/09/27 10:05:07;;;;;;;7.83;5.35;;;;;;;19.43;65.16;95565.73;1527810;93;25867;-78
2022/09/27 10:07:37;;;;;;;6.53;4.42;;;;;;;19.54;65.40;95563.01;1527915;93;25736;-79
2022/09/27 10:10:07;;;;;;;5.78;4.78;;;;;;;19.64;65.04;95560.00;1527751;93;25582;-77
2022/09/27 10:12:36;;;;;;;5.97;4.78;;;;;;;19.75;64.53;95553.14;1528031;93;28158;-78
2022/09/27 10:15:05;;;;;;;5.17;4.62;;;;;;;19.86;64.04;95547.39;1527942;93;26127;-78
2022/09/27 10:17:43;;;;;;;5.90;5.03;;;;;;;19.96;63.80;95549.28;1527994;93;25939;-79
2022/09/27 10:20:27;;;;;;;10.40;5.00;;;;;;;20.07;63.59;95537.48;1528277;93;26330;-78
2022/09/27 10:23:14;;;;;;;6.15;4.92;;;;;;;20.32;63.37;95532.66;1537119;93;25792;-77
2022/09/27 10:25:57;;;;;;;4.40;4.00;;;;;;;20.32;63.37;95532.66;1544568;91;27416;-78
2022/09/27 10:28:44;;;;;;;5.78;4.42;;;;;;;20.42;62.63;95526.90;1565313;91;25821;-78
2022/09/27 10:31:16;;;;;;;7.85;3.80;;;;;;;20.49;62.29;95519.59;1565219;90;25866;-78
2022/09/27 10:34:00;;;;;;;5.75;3.62;;;;;;;20.55;61.98;95518.30;1541277;93;25856;-78
2022/09/27 10:36:34;;;;;;;5.40;3.87;;;;;;;20.51;60.92;95526.13;1556986;90;25895;-79
2022/09/27 10:39:04;;;;;;;4.25;3.85;;;;;;;20.60;61.40;95520.09;1550055;92;27491;-77
2022/09/27 10:41:40;;;;;;;5.08;3.60;;;;;;;20.69;61.32;95518.97;1549809;92;25863;-78
2022/09/27 10:44:18;;;;;;;3.77;3.02;;;;;;;20.67;60.07;95514.93;1575943;89;25882;-77
2022/09/27 10:46:50;;;;;;;2.92;2.72;;;;;;;20.61;58.94;95490.19;1527643;92;25824;-77
2022/09/27 10:49:30;;;;;;;3.75;2.62;;;;;;;20.61;58.94;95490.19;1475748;95;25924;-78
2022/09/27 10:52:04;;;;;;;7.53;3.25;;;;;;;20.75;58.54;95508.11;1475469;97;27694;-78
2022/09/27 10:54:40;;;;;;;3.27;2.60;;;;;;;20.71;58.30;95504.94;1453299;98;26561;-78
2022/09/27 10:57:15;;;;;;;3.85;2.90;;;;;;;20.57;57.72;95496.86;1453272;98;25900;-77
2022/09/27 10:59:49;;;;;;;2.85;2.52;;;;;;;20.57;57.72;95496.86;1410327;101;26581;-77
2022/09/27 11:02:23;;;;;;;3.10;2.87;;;;;;;20.53;57.52;95478.66;1399063;102;25943;-78
2022/09/27 11:05:11;;;;;;;2.85;2.50;;;;;;;20.56;57.45;95488.96;1398716;101;27523;-77
2022/09/27 11:07:52;;;;;;;2.60;2.40;;;;;;;20.47;57.19;95484.28;1401036;101;25865;-77
2022/09/27 11:10:27;;;;;;;2.98;2.62;;;;;;;20.37;57.63;95478.31;1380586;103;25874;-81
2022/09/27 11:13:14;;;;;;;6.10;2.80;;;;;;;20.27;57.87;95475.84;1385951;102;25972;-79
2022/09/27 11:16:29;;;;;;;3.67;2.98;;;;;;;20.16;57.36;95445.22;1369286;104;25839;-80
2022/09/27 11:19:33;;;;;;;2.90;2.58;;;;;;;20.39;57.45;95473.32;1367827;103;28308;-78
2022/09/27 11:22:37;;;;;;;3.45;2.62;;;;;;;20.65;57.00;95473.35;1367744;104;25882;-79
2022/09/27 11:25:45;;;;;;;3.10;2.80;;;;;;;20.65;57.00;95473.35;1376148;103;25758;-80
2022/09/27 11:28:26;;;;;;;3.40;3.10;;;;;;;20.60;56.49;95473.50;1377396;104;25761;-78
2022/09/27 11:31:26;;;;;;;3.12;2.77;;;;;;;20.57;55.98;95471.39;1393284;101;25866;-80
2022/09/27 11:34:20;;;;;;;4.70;3.22;;;;;;;20.52;55.74;95467.45;1415901;101;27490;-80
2022/09/27 11:37:16;;;;;;;3.00;2.70;;;;;;;20.53;55.66;95460.25;1387058;103;26172;-79
2022/09/27 11:40:16;;;;;;;5.17;3.00;;;;;;;20.40;55.71;95449.71;1418157;101;25854;-78
2022/09/27 11:43:00;;;;;;;2.70;2.50;;;;;;;20.32;55.81;95447.72;1416512;101;26582;-78
2022/09/27 11:45:47;;;;;;;4.78;2.67;;;;;;;20.31;55.53;95447.47;1403282;102;25931;-80
2022/09/27 11:48:51;;;;;;;3.22;2.77;;;;;;;20.25;55.69;95451.51;1402335;101;28703;-79
2022/09/27 11:51:35;;;;;;;4.05;2.90;;;;;;;20.25;55.93;95442.48;1410990;100;26010;-81
2022/09/27 11:54:30;;;;;;;4.03;2.65;;;;;;;20.28;55.64;95437.17;1452278;97;25905;-79
2022/09/27 11:57:21;;;;;;;3.52;2.83;;;;;;;20.23;56.53;95434.58;1491980;96;26336;-80
2022/09/27 12:00:09;;;;;;;3.35;3.00;;;;;;;20.16;56.52;95434.26;1509421;94;25811;-80
2022/09/27 12:02:59;;;;;;;2.72;2.52;;;;;;;20.04;57.01;95430.77;1520212;94;27395;-79
2022/09/27 12:05:56;;;;;;;3.33;2.92;;;;;;;20.01;56.79;95419.64;1516248;93;26329;-78
2022/09/27 12:09:01;;;;;;;3.92;2.90;;;;;;;19.92;56.91;95422.93;1505504;95;25871;-78
2022/09/27 12:11:52;;;;;;;3.65;3.08;;;;;;;19.81;57.15;95416.91;1516045;94;25829;-77
2022/09/27 12:14:24;;;;;;;2.90;2.67;;;;;;;19.85;56.72;95418.47;1478880;95;26072;-81